createdAt,value
2017-08-15T00:02:33.269Z,3.10
2017-08-15T00:05:07.793Z,3.55
2017-08-15T00:07:42.293Z,3.50
2017-08-15T00:10:16.777Z,3.75
2017-08-15T00:12:51.240Z,3.80
2017-08-15T00:15:25.888Z,2.97
2017-08-15T00:18:00.173Z,3.95
2017-08-15T00:20:34.567Z,3.80
2017-08-15T00:23:09.032Z,3.50
2017-08-15T00:25:43.506Z,3.50
2017-08-15T00:28:17.865Z,3.95
2017-08-15T00:30:52.288Z,3.95
2017-08-15T00:33:27.628Z,4.55
2017-08-15T00:36:02.062Z,3.60
2017-08-15T00:38:36.453Z,3.50
2017-08-15T00:41:10.866Z,3.45
2017-08-15T00:43:46.009Z,3.97
2017-08-15T00:46:20.436Z,3.50
2017-08-15T00:48:54.850Z,3.30
2017-08-15T00:51:29.324Z,4.53
2017-08-15T00:54:03.797Z,3.90
2017-08-15T00:56:38.165Z,3.97
2017-08-15T00:59:12.625Z,4.10
2017-08-15T01:01:47.978Z,3.92
2017-08-15T01:04:22.511Z,3.62
2017-08-15T01:06:56.945Z,4.20
2017-08-15T01:09:31.417Z,4.00
2017-08-15T01:12:05.774Z,4.10
2017-08-15T01:14:40.179Z,4.18
2017-08-15T01:17:14.540Z,4.22
2017-08-15T01:19:49.005Z,4.03
2017-08-15T01:22:23.400Z,4.53
2017-08-15T01:24:57.717Z,3.72
2017-08-15T01:27:32.061Z,4.12
2017-08-15T01:30:06.472Z,3.92
2017-08-15T01:32:41.725Z,4.18
2017-08-15T01:35:16.168Z,4.20
2017-08-15T01:37:50.854Z,4.22
2017-08-15T01:40:25.168Z,4.40
2017-08-15T01:43:00.344Z,4.62
2017-08-15T01:45:34.718Z,4.80
2017-08-15T01:48:09.311Z,4.65
2017-08-15T01:50:44.585Z,4.30
2017-08-15T01:53:19.105Z,3.78
2017-08-15T01:55:53.663Z,5.07
2017-08-15T01:58:28.189Z,4.57
2017-08-15T02:01:02.669Z,5.05
2017-08-15T02:03:37.125Z,5.00
2017-08-15T02:06:11.443Z,5.00
2017-08-15T02:08:45.914Z,4.47
2017-08-15T02:11:20.275Z,4.87
2017-08-15T02:13:54.968Z,5.57
2017-08-15T02:16:29.317Z,4.95
2017-08-15T02:19:03.832Z,5.03
2017-08-15T02:21:38.117Z,4.43
2017-08-15T02:24:12.760Z,5.43
2017-08-15T02:26:47.086Z,4.82
2017-08-15T02:29:21.512Z,5.25
2017-08-15T02:31:55.834Z,5.55
2017-08-15T02:34:30.192Z,5.22
2017-08-15T02:37:04.497Z,5.05
2017-08-15T02:39:46.692Z,5.20
2017-08-15T02:42:21.089Z,4.97
2017-08-15T02:44:55.624Z,5.80
2017-08-15T02:47:30.113Z,5.10
2017-08-15T02:50:05.245Z,5.70
2017-08-15T02:52:39.771Z,5.20
2017-08-15T02:55:14.212Z,6.05
2017-08-15T02:57:48.671Z,5.55
2017-08-15T03:00:23.088Z,4.85
2017-08-15T03:02:57.500Z,5.05
2017-08-15T03:05:31.969Z,5.53
2017-08-15T03:08:06.372Z,5.07
2017-08-15T03:10:40.953Z,5.32
2017-08-15T03:13:15.401Z,5.45
2017-08-15T03:15:49.737Z,5.30
2017-08-15T03:18:24.049Z,6.15
2017-08-15T03:20:58.450Z,6.35
2017-08-15T03:23:32.899Z,5.47
2017-08-15T03:26:07.377Z,6.55
2017-08-15T03:28:41.717Z,5.57
2017-08-15T03:31:16.173Z,4.90
2017-08-15T03:33:50.549Z,5.90
2017-08-15T03:36:24.876Z,5.47
2017-08-15T03:38:59.448Z,4.68
2017-08-15T03:41:33.896Z,6.45
2017-08-15T03:44:08.485Z,4.90
2017-08-15T03:46:43.857Z,5.35
2017-08-15T03:49:18.308Z,5.50
2017-08-15T03:51:52.757Z,5.25
2017-08-15T03:54:27.088Z,6.62
2017-08-15T03:57:01.492Z,5.70
2017-08-15T03:59:35.931Z,5.80
2017-08-15T04:02:10.432Z,5.53
2017-08-15T04:04:44.976Z,5.55
2017-08-15T04:07:19.360Z,6.35
2017-08-15T04:09:53.829Z,5.62
2017-08-15T04:12:28.177Z,7.57
2017-08-15T04:15:02.592Z,5.25
2017-08-15T04:17:36.982Z,5.90
2017-08-15T04:20:12.198Z,6.12
2017-08-15T04:22:46.628Z,5.50
2017-08-15T04:25:21.093Z,5.40
2017-08-15T04:27:55.617Z,5.53
2017-08-15T04:30:29.988Z,6.15
2017-08-15T04:33:04.529Z,6.40
2017-08-15T04:35:39.026Z,6.18
2017-08-15T04:38:13.468Z,6.30
2017-08-15T04:40:47.926Z,6.47
2017-08-15T04:43:22.516Z,7.57
2017-08-15T04:45:57.697Z,7.70
2017-08-15T04:48:32.174Z,6.93
2017-08-15T04:51:06.580Z,7.60
2017-08-15T04:53:40.892Z,6.32
2017-08-15T04:56:15.302Z,7.50
2017-08-15T04:58:49.746Z,6.97
2017-08-15T05:01:24.101Z,7.65
2017-08-15T05:03:58.541Z,7.60
2017-08-15T05:06:32.857Z,7.18
2017-08-15T05:09:07.421Z,7.22
2017-08-15T05:11:41.842Z,8.10
2017-08-15T05:14:16.217Z,7.90
2017-08-15T05:16:50.665Z,8.00
2017-08-15T05:19:25.096Z,7.90
2017-08-15T05:22:00.313Z,8.70
2017-08-15T05:24:34.712Z,8.82
2017-08-15T05:27:09.016Z,9.40
2017-08-15T05:29:43.460Z,11.15
2017-08-15T05:32:18.697Z,9.48
2017-08-15T05:34:52.984Z,8.75
2017-08-15T05:37:27.332Z,8.02
2017-08-15T05:40:01.759Z,8.95
2017-08-15T05:42:36.125Z,9.32
2017-08-15T05:45:13.880Z,10.30
2017-08-15T05:47:48.479Z,8.82
2017-08-15T05:50:22.825Z,9.35
2017-08-15T05:52:57.378Z,8.60
2017-08-15T05:55:31.808Z,9.73
2017-08-15T05:58:06.155Z,9.10
2017-08-15T06:00:40.663Z,9.23
2017-08-15T06:03:14.973Z,8.75
2017-08-15T06:05:49.740Z,9.40
2017-08-15T06:08:24.838Z,10.13
2017-08-15T06:10:59.195Z,9.50
2017-08-15T06:13:33.672Z,9.82
2017-08-15T06:16:08.127Z,10.63
2017-08-15T06:18:42.450Z,9.27
2017-08-15T06:21:17.156Z,9.95
2017-08-15T06:23:51.445Z,9.85
2017-08-15T06:26:25.750Z,8.98
2017-08-15T06:29:00.081Z,8.75
2017-08-15T06:31:34.540Z,7.97
2017-08-15T06:34:08.858Z,7.60
2017-08-15T06:36:43.413Z,7.90
2017-08-15T06:39:17.802Z,8.88
2017-08-15T06:41:52.944Z,7.00
2017-08-15T06:44:27.452Z,7.55
2017-08-15T06:47:02.696Z,7.85
2017-08-15T06:49:39.071Z,6.97
2017-08-15T06:52:13.521Z,6.15
2017-08-15T06:54:47.989Z,6.30
2017-08-15T06:57:22.373Z,5.75
2017-08-15T06:59:57.773Z,6.78
2017-08-15T07:02:32.308Z,6.37
2017-08-15T07:05:06.642Z,6.10
2017-08-15T07:07:41.164Z,7.18
2017-08-15T07:10:16.788Z,7.40
2017-08-15T07:12:51.393Z,6.95
2017-08-15T07:15:25.709Z,7.55
2017-08-15T07:18:00.825Z,6.10
2017-08-15T07:20:35.125Z,7.93
2017-08-15T07:23:09.605Z,6.05
2017-08-15T07:25:44.805Z,7.22
2017-08-15T07:28:19.869Z,6.55
2017-08-15T07:30:54.181Z,7.10
2017-08-15T07:33:29.417Z,6.90
2017-08-15T07:36:03.924Z,7.20
2017-08-15T07:38:38.416Z,7.20
2017-08-15T07:41:12.738Z,6.50
2017-08-15T07:43:47.217Z,6.80
2017-08-15T07:46:22.491Z,6.95
2017-08-15T07:48:57.134Z,7.50
2017-08-15T07:51:31.561Z,7.10
2017-08-15T07:54:05.942Z,6.80
2017-08-15T07:56:40.257Z,6.93
2017-08-15T07:59:15.431Z,6.60
2017-08-15T08:01:49.902Z,6.10
2017-08-15T08:04:24.364Z,6.60
2017-08-15T08:06:58.822Z,6.70
2017-08-15T08:09:33.395Z,7.00
2017-08-15T08:12:08.460Z,7.87
2017-08-15T08:14:43.272Z,6.90
2017-08-15T08:17:17.697Z,6.40
2017-08-15T08:19:52.121Z,6.57
2017-08-15T08:22:30.104Z,6.77
2017-08-15T08:25:04.573Z,7.00
2017-08-15T08:27:39.037Z,6.70
2017-08-15T08:30:13.364Z,6.60
2017-08-15T08:32:47.856Z,6.50
2017-08-15T08:35:22.230Z,6.07
2017-08-15T08:37:56.620Z,7.40
2017-08-15T08:40:31.093Z,7.10
2017-08-15T08:43:05.398Z,7.23
2017-08-15T08:45:39.836Z,5.93
2017-08-15T08:48:14.285Z,6.97
2017-08-15T08:50:48.600Z,7.83
2017-08-15T08:53:23.937Z,6.57
2017-08-15T08:55:58.363Z,7.00
2017-08-15T08:58:33.143Z,6.80
2017-08-15T09:01:08.142Z,6.40
2017-08-15T09:03:42.728Z,7.50
2017-08-15T09:06:17.810Z,7.40
2017-08-15T09:08:52.360Z,7.90
2017-08-15T09:11:26.853Z,6.90
2017-08-15T09:14:01.349Z,7.40
2017-08-15T09:16:36.577Z,7.17
2017-08-15T09:19:13.384Z,6.43
2017-08-15T09:21:48.700Z,7.13
2017-08-15T09:24:23.199Z,7.50
2017-08-15T09:26:57.654Z,6.17
2017-08-15T09:29:37.881Z,7.10
2017-08-15T09:32:12.312Z,7.30
2017-08-15T09:34:46.786Z,7.90
2017-08-15T09:37:21.201Z,6.87
2017-08-15T09:39:55.525Z,7.03
2017-08-15T09:42:29.897Z,7.63
2017-08-15T09:45:04.358Z,7.00
2017-08-15T09:47:38.769Z,7.07
2017-08-15T09:50:13.076Z,6.93
2017-08-15T09:52:47.597Z,6.70
2017-08-15T09:55:22.142Z,7.10
2017-08-15T09:57:57.328Z,6.97
2017-08-15T10:00:31.711Z,6.23
2017-08-15T10:03:06.198Z,6.37
2017-08-15T10:05:40.521Z,6.73
2017-08-15T10:08:15.735Z,6.90
2017-08-15T10:10:50.494Z,6.17
2017-08-15T10:13:24.886Z,6.70
2017-08-15T10:15:59.317Z,6.17
2017-08-15T10:18:33.681Z,7.17
2017-08-15T10:21:08.766Z,7.00
2017-08-15T10:23:43.077Z,5.97
2017-08-15T10:26:17.593Z,5.20
2017-08-15T10:28:52.122Z,5.30
2017-08-15T10:31:26.457Z,4.57
2017-08-15T10:34:00.753Z,5.17
2017-08-15T10:36:35.101Z,4.67
2017-08-15T10:39:09.498Z,4.60
2017-08-15T10:41:43.841Z,5.17
2017-08-15T10:44:18.198Z,5.27
2017-08-15T10:46:52.524Z,5.00
2017-08-15T10:49:26.885Z,5.20
2017-08-15T10:52:01.171Z,4.17
2017-08-15T10:54:35.594Z,5.00
2017-08-15T10:57:09.909Z,5.53
2017-08-15T10:59:44.200Z,4.80
2017-08-15T11:02:18.737Z,5.00
2017-08-15T11:04:53.201Z,5.17
2017-08-15T11:07:28.344Z,4.50
2017-08-15T11:10:02.627Z,6.83
2017-08-15T11:12:36.969Z,5.83
2017-08-15T11:15:11.385Z,4.50
2017-08-15T11:17:45.784Z,5.33
2017-08-15T11:20:20.101Z,4.83
2017-08-15T11:22:54.567Z,5.23
2017-08-15T11:25:28.917Z,4.70
2017-08-15T11:28:03.365Z,4.43
2017-08-15T11:30:37.847Z,4.40
2017-08-15T11:33:12.308Z,4.20
2017-08-15T11:35:47.558Z,3.80
2017-08-15T11:38:21.921Z,4.73
2017-08-15T11:40:56.448Z,4.20
2017-08-15T11:43:30.906Z,4.90
2017-08-15T11:46:05.441Z,5.03
2017-08-15T11:48:39.841Z,4.97
2017-08-15T11:51:14.363Z,4.80
2017-08-15T11:53:48.657Z,4.53
2017-08-15T11:56:23.068Z,4.80
2017-08-15T11:58:57.573Z,5.00
2017-08-15T12:01:31.983Z,4.60
2017-08-15T12:04:06.292Z,4.90
2017-08-15T12:06:41.390Z,5.13
2017-08-15T12:09:15.873Z,5.80
2017-08-15T12:11:50.294Z,4.53
2017-08-15T12:14:24.893Z,4.53
2017-08-15T12:16:59.258Z,4.30
2017-08-15T12:19:34.424Z,5.10
2017-08-15T12:22:08.784Z,4.90
2017-08-15T12:24:43.256Z,5.23
2017-08-15T12:27:17.819Z,4.33
2017-08-15T12:29:52.351Z,4.20
2017-08-15T12:32:26.811Z,4.40
2017-08-15T12:35:01.241Z,4.77
2017-08-15T12:37:35.618Z,6.83
2017-08-15T12:40:09.958Z,4.80
2017-08-15T12:42:44.394Z,5.77
2017-08-15T12:45:18.825Z,5.07
2017-08-15T12:47:53.312Z,4.50
2017-08-15T12:50:27.836Z,4.50
2017-08-15T12:53:02.697Z,4.63
2017-08-15T12:55:37.970Z,4.50
2017-08-15T12:58:12.545Z,4.10
2017-08-15T13:00:46.853Z,4.37
2017-08-15T13:03:21.332Z,3.70
2017-08-15T13:05:56.089Z,4.57
2017-08-15T13:08:31.544Z,3.93
2017-08-15T13:11:05.956Z,3.70
2017-08-15T13:13:41.054Z,4.90
2017-08-15T13:16:15.534Z,4.20
2017-08-15T13:18:49.842Z,3.93
2017-08-15T13:21:24.351Z,4.93
2017-08-15T13:23:59.522Z,5.57
2017-08-15T13:26:33.931Z,4.13
2017-08-15T13:29:08.260Z,4.63
2017-08-15T13:31:42.553Z,4.70
2017-08-15T13:34:17.021Z,4.30
2017-08-15T13:36:51.378Z,4.43
2017-08-15T13:39:25.724Z,4.40
2017-08-15T13:42:00.004Z,4.40
2017-08-15T13:44:34.441Z,4.43
2017-08-15T13:47:08.897Z,4.47
2017-08-15T13:49:43.376Z,4.30
2017-08-15T13:52:17.701Z,4.23
2017-08-15T13:54:52.025Z,4.70
2017-08-15T13:57:26.462Z,4.50
2017-08-15T14:00:00.857Z,4.03
2017-08-15T14:02:35.281Z,4.10
2017-08-15T14:05:09.801Z,4.43
2017-08-15T14:07:44.321Z,4.13
2017-08-15T14:10:18.918Z,4.20
2017-08-15T14:12:53.253Z,4.90
2017-08-15T14:15:27.764Z,4.53
2017-08-15T14:18:02.081Z,4.50
2017-08-15T14:20:36.396Z,4.93
2017-08-15T14:23:10.925Z,4.67
2017-08-15T14:25:45.372Z,4.30
2017-08-15T14:28:19.781Z,4.47
2017-08-15T14:30:54.210Z,4.63
2017-08-15T14:33:28.686Z,4.50
2017-08-15T14:36:03.029Z,4.50
2017-08-15T14:38:37.456Z,5.13
2017-08-15T14:41:11.786Z,4.67
2017-08-15T14:43:46.411Z,6.60
2017-08-15T14:46:20.704Z,5.00
2017-08-15T14:48:55.034Z,4.70
2017-08-15T14:51:29.380Z,4.67
2017-08-15T14:54:03.876Z,5.30
2017-08-15T14:56:38.165Z,5.70
2017-08-15T14:59:12.482Z,5.10
2017-08-15T15:01:46.981Z,5.67
2017-08-15T15:04:21.413Z,4.90
2017-08-15T15:06:55.801Z,5.07
2017-08-15T15:09:30.257Z,5.63
2017-08-15T15:12:04.678Z,5.40
2017-08-15T15:14:39.209Z,5.90
2017-08-15T15:17:13.672Z,5.60
2017-08-15T15:19:48.557Z,5.60
2017-08-15T15:22:22.879Z,6.70
2017-08-15T15:24:57.186Z,5.80
2017-08-15T15:27:31.770Z,5.00
2017-08-15T15:30:06.129Z,5.40
2017-08-15T15:32:40.669Z,5.40
2017-08-15T15:35:15.085Z,5.83
2017-08-15T15:37:51.680Z,5.13
2017-08-15T15:40:27.080Z,5.37
2017-08-15T15:43:01.513Z,6.03
2017-08-15T15:45:35.928Z,5.50
2017-08-15T15:48:10.433Z,5.60
2017-08-15T15:50:44.733Z,5.93
2017-08-15T15:53:19.160Z,5.37
2017-08-15T15:55:53.495Z,7.33
2017-08-15T15:58:28.726Z,5.13
2017-08-15T16:01:03.197Z,5.60
2017-08-15T16:03:37.466Z,6.00
2017-08-15T16:06:12.797Z,5.83
2017-08-15T16:08:47.100Z,6.57
2017-08-15T16:11:21.499Z,6.20
2017-08-15T16:13:55.793Z,5.67
2017-08-15T16:16:30.377Z,5.53
2017-08-15T16:19:04.772Z,6.10
2017-08-15T16:21:39.115Z,5.50
2017-08-15T16:24:13.450Z,5.70
2017-08-15T16:26:48.017Z,6.13
2017-08-15T16:29:22.505Z,5.63
2017-08-15T16:31:56.953Z,7.13
2017-08-15T16:34:31.440Z,7.33
2017-08-15T16:37:05.824Z,6.30
2017-08-15T16:39:40.270Z,5.80
2017-08-15T16:42:14.641Z,6.37
2017-08-15T16:44:49.105Z,6.40
2017-08-15T16:47:23.465Z,6.40
2017-08-15T16:49:57.752Z,6.10
2017-08-15T16:52:32.078Z,7.40
2017-08-15T16:55:25.231Z,6.70
2017-08-15T16:57:59.709Z,23.00
2017-08-15T17:00:34.009Z,6.70
2017-08-15T17:03:08.419Z,7.97
2017-08-15T17:05:43.604Z,7.27
2017-08-15T17:08:18.029Z,6.40
2017-08-15T17:10:52.373Z,6.53
2017-08-15T17:13:26.789Z,5.87
2017-08-15T17:16:01.209Z,6.30
2017-08-15T17:18:36.762Z,5.93
2017-08-15T17:21:11.045Z,7.20
2017-08-15T17:23:45.378Z,5.77
2017-08-15T17:26:19.803Z,7.30
2017-08-15T17:28:54.295Z,6.93
2017-08-15T17:31:28.645Z,6.53
2017-08-15T17:34:03.857Z,6.57
2017-08-15T17:36:38.362Z,6.13
2017-08-15T17:39:12.816Z,7.10
2017-08-15T17:41:47.342Z,7.20
2017-08-15T17:44:21.742Z,6.97
2017-08-15T17:46:56.072Z,7.90
2017-08-15T17:49:30.558Z,7.80
2017-08-15T17:52:04.913Z,6.60
2017-08-15T17:54:39.228Z,7.47
2017-08-15T17:57:13.710Z,8.17
2017-08-15T17:59:48.133Z,6.87
2017-08-15T18:02:22.430Z,7.20
2017-08-15T18:04:56.917Z,8.23
2017-08-15T18:07:32.316Z,7.30
2017-08-15T18:10:06.754Z,7.57
2017-08-15T18:12:41.177Z,7.40
2017-08-15T18:15:15.614Z,7.40
2017-08-15T18:17:49.930Z,8.33
2017-08-15T18:20:24.374Z,7.23
2017-08-15T18:22:58.673Z,9.43
2017-08-15T18:25:33.135Z,11.80
2017-08-15T18:28:07.577Z,8.90
2017-08-15T18:30:41.840Z,9.80
2017-08-15T18:33:16.228Z,8.20
2017-08-15T18:35:50.568Z,10.37
2017-08-15T18:38:25.785Z,10.57
2017-08-15T18:41:00.309Z,6.37
2017-08-15T18:43:34.825Z,9.70
2017-08-15T18:46:09.447Z,8.30
2017-08-15T18:48:43.941Z,2.90
2017-08-15T18:51:19.016Z,4.87
2017-08-15T18:53:53.433Z,3.92
2017-08-15T18:56:27.898Z,5.97
2017-08-15T18:59:02.481Z,4.72
2017-08-15T19:01:36.897Z,7.25
2017-08-15T19:04:11.263Z,6.35
2017-08-15T19:06:45.701Z,5.82
2017-08-15T19:09:20.157Z,5.80
2017-08-15T19:11:54.643Z,4.78
2017-08-15T19:14:28.987Z,4.75
2017-08-15T19:17:03.492Z,3.90
2017-08-15T19:19:37.804Z,4.43
2017-08-15T19:22:12.325Z,4.45
2017-08-15T19:24:46.804Z,4.05
2017-08-15T19:27:21.274Z,3.85
2017-08-15T19:29:55.733Z,4.03
2017-08-15T19:32:30.564Z,4.32
2017-08-15T19:35:05.057Z,4.50
2017-08-15T19:37:39.399Z,5.32
2017-08-15T19:40:13.933Z,5.90
2017-08-15T19:42:48.589Z,4.90
2017-08-15T19:45:22.982Z,4.28
2017-08-15T19:47:57.441Z,5.25
2017-08-15T19:50:31.893Z,5.35
2017-08-15T19:53:06.233Z,5.35
2017-08-15T19:55:40.533Z,5.93
2017-08-15T19:58:15.234Z,6.78
2017-08-15T20:00:50.464Z,5.37
2017-08-15T20:03:25.764Z,6.12
2017-08-15T20:06:00.217Z,6.85
2017-08-15T20:08:34.677Z,7.35
2017-08-15T20:11:09.093Z,6.53
2017-08-15T20:13:43.593Z,6.70
2017-08-15T20:16:18.142Z,7.60
2017-08-15T20:18:52.556Z,9.45
2017-08-15T20:21:26.881Z,11.20
2017-08-15T20:24:01.249Z,11.00
2017-08-15T20:26:37.284Z,11.35
2017-08-15T20:29:11.918Z,13.62
2017-08-15T20:31:46.250Z,13.75
2017-08-15T20:34:20.708Z,14.82
2017-08-15T20:36:55.157Z,12.10
2017-08-15T20:39:29.697Z,12.10
2017-08-15T20:42:04.148Z,13.80
2017-08-15T20:44:38.553Z,11.48
2017-08-15T20:47:12.976Z,11.40
2017-08-15T20:49:48.234Z,10.55
2017-08-15T20:52:23.359Z,11.57
2017-08-15T20:54:57.956Z,12.00
2017-08-15T20:57:33.227Z,10.90
2017-08-15T21:00:07.741Z,10.32
2017-08-15T21:02:42.181Z,11.65
2017-08-15T21:05:16.603Z,11.93
2017-08-15T21:07:50.992Z,12.90
2017-08-15T21:10:25.354Z,13.93
2017-08-15T21:12:59.822Z,11.90
2017-08-15T21:15:34.520Z,11.27
2017-08-15T21:18:08.909Z,12.50
2017-08-15T21:20:43.379Z,11.63
2017-08-15T21:23:17.718Z,12.35
2017-08-15T21:25:52.174Z,13.30
2017-08-15T21:28:26.477Z,12.52
2017-08-15T21:31:00.921Z,12.85
2017-08-15T21:33:35.352Z,13.38
2017-08-15T21:36:09.702Z,13.85
2017-08-15T21:38:44.015Z,14.30
2017-08-15T21:41:18.553Z,15.82
2017-08-15T21:43:52.874Z,17.52
2017-08-15T21:46:27.224Z,16.87
2017-08-15T21:49:01.680Z,17.65
2017-08-15T21:51:36.220Z,17.23
2017-08-15T21:54:11.458Z,15.75
2017-08-15T21:56:45.897Z,16.33
2017-08-15T21:59:20.368Z,16.80
2017-08-15T22:02:00.586Z,16.67
2017-08-15T22:04:34.910Z,17.33
2017-08-15T22:07:09.443Z,17.20
2017-08-15T22:09:43.863Z,17.15
2017-08-15T22:12:18.353Z,17.58
2017-08-15T22:14:53.958Z,18.08
2017-08-15T22:17:28.245Z,20.80
2017-08-15T22:20:02.609Z,19.25
2017-08-15T22:22:37.053Z,23.05
2017-08-15T22:25:11.513Z,21.75
2017-08-15T22:27:45.804Z,22.77
2017-08-15T22:30:20.261Z,24.45
2017-08-15T22:32:54.795Z,26.45
2017-08-15T22:35:29.195Z,27.85
2017-08-15T22:38:03.768Z,26.25
2017-08-15T22:40:38.304Z,29.12
2017-08-15T22:43:12.854Z,32.22
2017-08-15T22:45:47.205Z,31.20
2017-08-15T22:48:21.707Z,33.13
2017-08-15T22:50:56.326Z,34.28
2017-08-15T22:53:30.798Z,34.53
2017-08-15T22:56:05.390Z,34.13
2017-08-15T22:58:39.912Z,35.97
2017-08-15T23:01:14.436Z,38.28
2017-08-15T23:03:48.913Z,37.65
2017-08-15T23:06:23.229Z,38.67
2017-08-15T23:08:57.536Z,40.10
2017-08-15T23:11:32.669Z,40.83
2017-08-15T23:14:07.153Z,42.80
2017-08-15T23:16:41.577Z,44.33
2017-08-15T23:19:16.126Z,44.83
2017-08-15T23:21:50.510Z,45.75
2017-08-15T23:24:24.865Z,46.90
2017-08-15T23:26:59.349Z,51.78
2017-08-15T23:29:33.704Z,47.40
2017-08-15T23:32:08.049Z,47.10
2017-08-15T23:34:42.452Z,47.17
2017-08-15T23:37:17.078Z,48.28
2017-08-15T23:39:51.480Z,47.85
2017-08-15T23:42:25.773Z,46.25
2017-08-15T23:45:01.027Z,47.30
2017-08-15T23:47:35.378Z,51.05
2017-08-15T23:50:09.826Z,54.28
2017-08-15T23:52:45.362Z,52.38
2017-08-15T23:55:19.697Z,50.28
2017-08-15T23:57:54.101Z,51.22
